createdAt,value
2019-04-10T00:01:36.750Z,8.30
2019-04-10T00:04:07.159Z,8.20
2019-04-10T00:06:37.592Z,8.30
2019-04-10T00:09:08.492Z,8.40
2019-04-10T00:11:38.184Z,8.30
2019-04-10T00:14:08.272Z,8.20
2019-04-10T00:16:38.316Z,8.10
2019-04-10T00:19:08.723Z,8.10
2019-04-10T00:21:38.428Z,8.00
2019-04-10T00:24:08.188Z,7.90
2019-04-10T00:26:37.865Z,8.00
2019-04-10T00:29:07.793Z,7.80
2019-04-10T00:31:38.155Z,7.80
2019-04-10T00:34:08.062Z,7.80
2019-04-10T00:36:37.797Z,7.80
2019-04-10T00:39:08.633Z,7.80
2019-04-10T00:41:38.567Z,7.80
2019-04-10T00:44:09.252Z,7.90
2019-04-10T00:46:40.062Z,8.00
2019-04-10T00:49:09.701Z,8.10
2019-04-10T00:51:39.479Z,8.20
2019-04-10T00:54:09.843Z,8.20
2019-04-10T00:56:39.479Z,8.30
2019-04-10T00:59:10.219Z,8.30
2019-04-10T01:01:40.270Z,8.40
2019-04-10T01:04:10.577Z,8.50
2019-04-10T01:06:40.411Z,8.50
2019-04-10T01:09:11.200Z,8.60
2019-04-10T01:11:41.414Z,8.50
2019-04-10T01:14:11.649Z,8.50
2019-04-10T01:16:41.825Z,8.60
2019-04-10T01:19:12.070Z,8.50
2019-04-10T01:21:42.223Z,8.50
2019-04-10T01:24:11.918Z,8.40
2019-04-10T01:26:41.555Z,8.40
2019-04-10T01:29:11.363Z,8.30
2019-04-10T01:31:41.459Z,8.40
2019-04-10T01:34:11.509Z,8.30
2019-04-10T01:36:41.931Z,8.30
2019-04-10T01:39:17.960Z,8.40
2019-04-10T01:41:48.057Z,8.30
2019-04-10T01:44:17.578Z,8.30
2019-04-10T01:46:47.249Z,8.20
2019-04-10T01:49:17.679Z,8.20
2019-04-10T01:51:47.669Z,8.20
2019-04-10T01:54:17.322Z,8.20
2019-04-10T01:56:47.793Z,8.20
2019-04-10T01:59:19.388Z,8.20
2019-04-10T02:02:08.020Z,8.20
2019-04-10T02:04:37.602Z,8.10
2019-04-10T02:07:07.620Z,8.00
2019-04-10T02:09:37.298Z,8.00
2019-04-10T02:12:06.876Z,8.00
2019-04-10T02:14:36.485Z,8.00
2019-04-10T02:17:06.449Z,8.00
2019-04-10T02:19:36.430Z,8.10
2019-04-10T02:22:06.488Z,8.10
2019-04-10T02:24:36.210Z,8.20
2019-04-10T02:27:05.867Z,8.30
2019-04-10T02:29:35.736Z,8.40
2019-04-10T02:32:05.921Z,8.50
2019-04-10T02:34:36.998Z,8.60
2019-04-10T02:37:07.009Z,8.60
2019-04-10T02:39:42.385Z,8.70
2019-04-10T02:42:08.274Z,8.80
2019-04-10T02:44:38.247Z,8.90
2019-04-10T02:47:08.202Z,9.00
2019-04-10T02:49:38.617Z,9.10
2019-04-10T02:52:08.812Z,9.10
2019-04-10T02:54:39.718Z,9.30
2019-04-10T02:57:09.690Z,9.20
2019-04-10T02:59:39.796Z,9.40
2019-04-10T03:02:09.451Z,9.40
2019-04-10T03:04:42.472Z,9.40
2019-04-10T03:07:13.290Z,9.40
2019-04-10T03:09:58.991Z,9.40
2019-04-10T03:12:14.702Z,9.40
2019-04-10T03:14:47.479Z,9.40
2019-04-10T03:17:17.760Z,9.40
2019-04-10T03:19:47.822Z,9.50
2019-04-10T03:22:17.445Z,9.50
2019-04-10T03:24:46.942Z,9.50
2019-04-10T03:27:16.996Z,9.40
2019-04-10T03:29:46.521Z,9.40
2019-04-10T03:32:36.535Z,9.40
2019-04-10T03:35:14.469Z,9.40
2019-04-10T03:37:44.621Z,9.40
2019-04-10T03:40:33.436Z,9.50
2019-04-10T03:43:03.510Z,9.50
2019-04-10T03:45:34.563Z,9.40
2019-04-10T03:48:04.928Z,9.40
2019-04-10T03:50:34.669Z,9.40
2019-04-10T03:53:04.197Z,9.50
2019-04-10T03:55:34.842Z,9.50
2019-04-10T03:58:04.671Z,9.50
2019-04-10T04:00:34.299Z,9.40
2019-04-10T04:03:04.654Z,9.30
2019-04-10T04:05:34.973Z,9.40
2019-04-10T04:08:05.506Z,9.30
2019-04-10T04:10:37.030Z,9.30
2019-04-10T04:13:07.525Z,9.30
2019-04-10T04:15:37.934Z,9.30
2019-04-10T04:18:08.780Z,9.20
2019-04-10T04:20:39.205Z,9.30
2019-04-10T04:23:09.592Z,9.30
2019-04-10T04:25:39.417Z,9.30
2019-04-10T04:28:09.259Z,9.30
2019-04-10T04:30:39.050Z,9.40
2019-04-10T04:33:09.070Z,9.30
2019-04-10T04:35:38.789Z,9.30
2019-04-10T04:38:09.251Z,9.20
2019-04-10T04:40:38.918Z,9.20
2019-04-10T04:43:08.519Z,9.30
2019-04-10T04:45:38.099Z,9.20
2019-04-10T04:48:08.115Z,9.20
2019-04-10T04:50:38.232Z,9.20
2019-04-10T04:53:08.695Z,9.20
2019-04-10T04:55:39.416Z,9.20
2019-04-10T04:58:09.685Z,9.10
2019-04-10T05:00:39.626Z,9.10
2019-04-10T05:03:10.001Z,9.00
2019-04-10T05:05:39.702Z,9.00
2019-04-10T05:08:09.986Z,9.00
2019-04-10T05:10:39.917Z,9.00
2019-04-10T05:13:10.481Z,9.10
2019-04-10T05:15:40.832Z,9.10
2019-04-10T05:18:10.518Z,9.10
2019-04-10T05:20:46.006Z,9.10
2019-04-10T05:23:11.242Z,9.10
2019-04-10T05:25:41.486Z,9.20
2019-04-10T05:28:13.277Z,9.20
2019-04-10T05:30:43.127Z,9.30
2019-04-10T05:33:14.340Z,9.30
2019-04-10T05:35:44.046Z,9.30
2019-04-10T05:38:13.934Z,9.40
2019-04-10T05:40:44.253Z,9.40
2019-04-10T05:43:14.246Z,9.40
2019-04-10T05:45:44.012Z,9.40
2019-04-10T05:48:13.661Z,9.50
2019-04-10T05:50:53.034Z,9.60
2019-04-10T05:53:14.519Z,9.60
2019-04-10T05:55:45.199Z,9.60
2019-04-10T05:58:15.438Z,9.60
2019-04-10T06:00:45.444Z,9.60
2019-04-10T06:03:15.128Z,9.70
2019-04-10T06:05:44.805Z,9.70
2019-04-10T06:08:14.356Z,9.80
2019-04-10T06:10:44.009Z,9.80
2019-04-10T06:13:13.535Z,9.90
2019-04-10T06:16:03.457Z,9.90
2019-04-10T06:18:33.391Z,9.90
2019-04-10T06:21:03.054Z,9.90
2019-04-10T06:23:33.770Z,10.00
2019-04-10T06:26:04.938Z,10.00
2019-04-10T06:28:34.839Z,10.00
2019-04-10T06:31:06.502Z,10.10
2019-04-10T06:33:36.273Z,10.10
2019-04-10T06:36:05.897Z,10.20
2019-04-10T06:38:35.575Z,10.20
2019-04-10T06:41:06.178Z,10.20
2019-04-10T06:43:37.175Z,10.20
2019-04-10T06:46:08.330Z,10.20
2019-04-10T06:48:38.442Z,10.20
2019-04-10T06:51:08.239Z,10.10
2019-04-10T06:53:37.928Z,10.00
2019-04-10T06:56:07.629Z,9.90
2019-04-10T06:58:38.120Z,9.80
2019-04-10T07:01:08.383Z,9.80
2019-04-10T07:03:49.410Z,9.80
2019-04-10T07:06:15.600Z,9.80
2019-04-10T07:08:46.313Z,9.70
2019-04-10T07:11:13.548Z,9.80
2019-04-10T07:13:43.264Z,9.90
2019-04-10T07:16:12.923Z,9.90
2019-04-10T07:18:45.858Z,10.10
2019-04-10T07:21:14.683Z,10.20
2019-04-10T07:23:44.975Z,10.20
2019-04-10T07:26:19.376Z,10.20
2019-04-10T07:28:47.439Z,10.20
2019-04-10T07:31:17.370Z,10.30
2019-04-10T07:33:50.114Z,10.30
2019-04-10T07:36:18.269Z,10.20
2019-04-10T07:38:48.872Z,10.20
2019-04-10T07:41:21.926Z,10.30
2019-04-10T07:43:55.106Z,10.20
2019-04-10T07:46:21.886Z,10.10
2019-04-10T07:48:52.490Z,10.20
2019-04-10T07:51:22.283Z,10.10
2019-04-10T07:53:51.916Z,10.10
2019-04-10T07:56:22.411Z,10.10
2019-04-10T07:59:00.553Z,10.20
2019-04-10T08:01:49.516Z,10.20
2019-04-10T08:04:19.062Z,10.30
2019-04-10T08:06:48.639Z,10.30
2019-04-10T08:09:18.893Z,10.30
2019-04-10T08:11:48.888Z,10.30
2019-04-10T08:14:19.602Z,10.30
2019-04-10T08:16:49.734Z,10.20
2019-04-10T08:19:19.325Z,10.30
2019-04-10T08:21:49.194Z,10.20
2019-04-10T08:24:18.915Z,10.30
2019-04-10T08:26:49.276Z,10.20
2019-04-10T08:29:19.136Z,10.20
2019-04-10T08:31:50.338Z,10.30
2019-04-10T08:34:20.300Z,10.20
2019-04-10T08:36:52.822Z,10.30
2019-04-10T08:39:33.901Z,10.30
2019-04-10T08:41:54.383Z,10.30
2019-04-10T08:44:24.326Z,10.30
2019-04-10T08:46:54.692Z,10.40
2019-04-10T08:49:24.828Z,10.30
2019-04-10T08:51:55.525Z,10.40
2019-04-10T08:54:25.912Z,10.40
2019-04-10T08:56:55.499Z,10.40
2019-04-10T08:59:25.061Z,10.40
2019-04-10T09:01:55.688Z,10.50
2019-04-10T09:04:26.055Z,10.60
2019-04-10T09:06:56.066Z,10.60
2019-04-10T09:09:25.789Z,10.60
2019-04-10T09:11:55.552Z,10.60
2019-04-10T09:14:26.241Z,10.60
2019-04-10T09:16:56.754Z,10.60
2019-04-10T09:19:26.425Z,10.60
2019-04-10T09:21:57.220Z,10.70
2019-04-10T09:24:27.959Z,10.70
2019-04-10T09:26:57.648Z,10.80
2019-04-10T09:29:27.893Z,10.90
2019-04-10T09:31:57.840Z,10.90
2019-04-10T09:34:27.721Z,11.00
2019-04-10T09:36:57.723Z,11.10
2019-04-10T09:39:27.656Z,11.20
2019-04-10T09:41:57.198Z,11.20
2019-04-10T09:44:28.190Z,11.30
2019-04-10T09:46:58.210Z,11.50
2019-04-10T09:49:35.644Z,11.60
2019-04-10T09:52:00.696Z,11.70
2019-04-10T09:54:31.506Z,12.00
2019-04-10T09:57:01.464Z,12.30
2019-04-10T09:59:36.518Z,12.60
2019-04-10T10:02:02.750Z,12.90
2019-04-10T10:04:33.336Z,13.30
2019-04-10T10:07:03.954Z,13.60
2019-04-10T10:09:34.676Z,13.90
2019-04-10T10:12:04.640Z,14.10
2019-04-10T10:14:34.148Z,14.30
2019-04-10T10:17:04.354Z,14.50
2019-04-10T10:19:34.237Z,14.90
2019-04-10T10:22:04.954Z,14.90
2019-04-10T10:24:35.652Z,14.90
2019-04-10T10:27:05.613Z,15.00
2019-04-10T10:29:35.677Z,15.20
2019-04-10T10:32:05.654Z,15.60
2019-04-10T10:34:36.651Z,16.00
2019-04-10T10:37:06.508Z,16.30
2019-04-10T10:39:43.076Z,16.60
2019-04-10T10:42:13.717Z,17.00
2019-04-10T10:44:43.317Z,17.10
2019-04-10T10:47:13.722Z,17.10
2019-04-10T10:49:44.497Z,17.00
2019-04-10T10:52:15.082Z,16.80
2019-04-10T10:54:45.280Z,16.60
2019-04-10T10:57:15.230Z,16.60
2019-04-10T10:59:45.980Z,16.60
2019-04-10T11:02:15.617Z,16.30
2019-04-10T11:04:45.397Z,16.20
2019-04-10T11:07:16.111Z,16.20
2019-04-10T11:09:45.899Z,16.30
2019-04-10T11:12:15.893Z,16.10
2019-04-10T11:14:45.658Z,15.40
2019-04-10T11:17:15.821Z,15.00
2019-04-10T11:20:06.017Z,14.70
2019-04-10T11:22:35.713Z,14.70
2019-04-10T11:25:06.152Z,14.90
2019-04-10T11:27:35.906Z,14.70
2019-04-10T11:30:08.253Z,14.70
2019-04-10T11:32:38.226Z,14.90
2019-04-10T11:35:08.736Z,15.00
2019-04-10T11:37:44.470Z,15.20
2019-04-10T11:40:12.392Z,15.40
2019-04-10T11:42:42.972Z,15.60
2019-04-10T11:45:17.046Z,15.80
2019-04-10T11:47:48.254Z,16.10
2019-04-10T11:50:18.911Z,16.00
2019-04-10T11:52:53.206Z,15.90
2019-04-10T11:55:26.135Z,15.90
2019-04-10T11:57:54.584Z,15.90
2019-04-10T12:00:46.673Z,16.00
2019-04-10T12:03:10.422Z,16.20
2019-04-10T12:05:42.264Z,16.30
2019-04-10T12:13:17.020Z,16.20
2019-04-10T12:15:45.987Z,16.00
2019-04-10T12:18:16.140Z,16.40
2019-04-10T12:20:46.144Z,16.80
2019-04-10T12:23:16.769Z,16.80
2019-04-10T12:25:47.188Z,16.70
2019-04-10T12:28:17.912Z,16.40
2019-04-10T12:30:47.806Z,16.10
2019-04-10T12:33:17.422Z,16.10
2019-04-10T12:35:48.316Z,16.10
2019-04-10T12:38:19.292Z,15.80
2019-04-10T12:40:49.014Z,15.80
2019-04-10T12:43:18.920Z,15.80
2019-04-10T12:45:48.676Z,15.70
2019-04-10T12:48:20.621Z,15.80
2019-04-10T12:50:50.480Z,15.90
2019-04-10T12:53:21.247Z,15.80
2019-04-10T12:55:51.394Z,15.50
2019-04-10T12:58:21.097Z,15.20
2019-04-10T13:00:52.051Z,14.80
2019-04-10T13:03:22.969Z,14.70
2019-04-10T13:06:13.660Z,14.70
2019-04-10T13:08:57.078Z,14.90
2019-04-10T13:11:16.307Z,15.00
2019-04-10T13:13:48.386Z,15.00
2019-04-10T13:16:18.228Z,15.10
2019-04-10T13:18:48.971Z,15.10
2019-04-10T13:21:18.766Z,14.90
2019-04-10T13:23:48.957Z,14.90
2019-04-10T13:26:18.764Z,14.80
2019-04-10T13:28:48.224Z,14.70
2019-04-10T13:31:23.858Z,14.90
2019-04-10T13:33:53.596Z,14.90
2019-04-10T13:36:24.798Z,14.70
2019-04-10T13:38:54.858Z,14.80
2019-04-10T13:41:24.428Z,14.70
2019-04-10T13:43:54.028Z,14.60
2019-04-10T13:46:24.673Z,14.50
2019-04-10T13:48:54.244Z,14.40
2019-04-10T13:51:23.941Z,14.30
2019-04-10T13:53:55.136Z,14.30
2019-04-10T13:56:25.354Z,14.40
2019-04-10T13:58:55.074Z,14.40
2019-04-10T14:01:33.536Z,14.40
2019-04-10T14:04:03.328Z,14.30
2019-04-10T14:06:33.924Z,14.20
2019-04-10T14:09:22.596Z,14.10
2019-04-10T14:11:49.185Z,14.20
2019-04-10T14:14:20.331Z,14.30
2019-04-10T14:16:55.470Z,14.40
2019-04-10T14:19:28.093Z,14.30
2019-04-10T14:21:57.730Z,14.40
2019-04-10T14:24:38.320Z,14.20
2019-04-10T14:27:07.738Z,14.10
2019-04-10T14:29:38.557Z,14.00
2019-04-10T14:32:11.292Z,13.90
2019-04-10T14:34:40.853Z,13.90
2019-04-10T14:37:13.613Z,13.90
2019-04-10T14:42:13.887Z,13.80
2019-04-10T14:45:03.529Z,13.80
2019-04-10T14:47:33.857Z,13.80
2019-04-10T14:50:05.286Z,13.80
2019-04-10T14:52:35.107Z,13.80
2019-04-10T14:55:04.767Z,13.70
2019-04-10T14:57:34.938Z,13.70
2019-04-10T15:00:07.199Z,13.70
2019-04-10T15:02:36.972Z,13.60
2019-04-10T15:05:08.090Z,13.60
2019-04-10T15:07:37.643Z,13.60
2019-04-10T15:10:08.919Z,13.60
2019-04-10T15:12:39.554Z,13.50
2019-04-10T15:15:10.140Z,13.60
2019-04-10T15:17:40.285Z,13.60
2019-04-10T15:20:11.160Z,13.60
2019-04-10T15:22:42.088Z,13.50
2019-04-10T15:25:11.698Z,13.50
2019-04-10T15:27:42.522Z,13.50
2019-04-10T15:30:14.591Z,13.50
2019-04-10T15:32:45.347Z,13.50
2019-04-10T15:35:15.973Z,13.40
2019-04-10T15:37:45.803Z,13.40
2019-04-10T15:40:22.751Z,13.30
2019-04-10T15:42:49.184Z,13.30
2019-04-10T15:45:19.610Z,13.20
2019-04-10T15:47:55.478Z,13.20
2019-04-10T15:50:22.302Z,13.10
2019-04-10T15:52:51.854Z,13.00
2019-04-10T15:55:21.746Z,13.00
2019-04-10T15:57:55.259Z,12.90
2019-04-10T16:00:23.420Z,13.00
2019-04-10T16:02:53.913Z,12.90
2019-04-10T16:05:24.293Z,12.90
2019-04-10T16:07:55.188Z,12.90
2019-04-10T16:10:43.272Z,12.90
2019-04-10T16:13:25.154Z,12.90
2019-04-10T16:15:55.204Z,12.90
2019-04-10T16:18:25.568Z,12.90
2019-04-10T16:20:55.299Z,12.80
2019-04-10T16:23:47.683Z,12.70
2019-04-10T16:26:36.418Z,12.70
2019-04-10T16:29:06.204Z,12.70
2019-04-10T16:31:35.754Z,12.70
2019-04-10T16:34:05.438Z,12.60
2019-04-10T16:36:35.265Z,12.60
2019-04-10T16:39:09.104Z,12.50
2019-04-10T16:41:38.894Z,12.60
2019-04-10T16:44:08.955Z,12.50
2019-04-10T16:46:40.465Z,12.50
2019-04-10T16:49:10.655Z,12.50
2019-04-10T16:51:40.566Z,12.40
2019-04-10T16:54:10.498Z,12.40
2019-04-10T16:56:42.232Z,12.30
2019-04-10T16:59:14.218Z,12.30
2019-04-10T17:01:44.885Z,12.30
2019-04-10T17:04:14.694Z,12.30
2019-04-10T17:06:46.033Z,12.30
2019-04-10T17:09:18.705Z,12.30
2019-04-10T17:11:49.275Z,12.20
2019-04-10T17:14:20.402Z,12.20
2019-04-10T17:16:50.579Z,12.20
2019-04-10T17:19:21.536Z,12.10
2019-04-10T17:21:52.145Z,12.10
2019-04-10T17:24:22.896Z,12.00
2019-04-10T17:26:52.466Z,12.00
2019-04-10T17:29:23.047Z,12.00
2019-04-10T17:31:53.005Z,11.90
2019-04-10T17:34:22.954Z,11.90
2019-04-10T17:36:53.544Z,11.90
2019-04-10T17:39:25.044Z,11.80
2019-04-10T17:41:55.810Z,11.80
2019-04-10T17:44:25.703Z,11.80
2019-04-10T17:46:55.618Z,11.80
2019-04-10T17:49:27.680Z,11.80
2019-04-10T17:51:59.837Z,11.80
2019-04-10T17:54:29.729Z,11.80
2019-04-10T17:57:00.401Z,11.80
2019-04-10T17:59:30.259Z,11.70
2019-04-10T18:02:02.484Z,11.70
2019-04-10T18:04:32.282Z,11.70
2019-04-10T18:07:01.884Z,11.70
2019-04-10T18:09:32.724Z,11.60
2019-04-10T18:12:03.935Z,11.60
2019-04-10T18:14:36.788Z,11.60
2019-04-10T18:17:06.384Z,11.50
2019-04-10T18:19:38.606Z,11.60
2019-04-10T18:22:08.474Z,11.60
2019-04-10T18:24:38.111Z,11.60
2019-04-10T18:27:08.414Z,11.50
2019-04-10T18:29:39.227Z,11.50
2019-04-10T18:32:11.669Z,11.60
2019-04-10T18:34:42.420Z,11.50
2019-04-10T18:37:15.774Z,11.50
2019-04-10T18:39:46.428Z,11.60
2019-04-10T18:42:17.222Z,11.50
2019-04-10T18:44:47.335Z,11.50
2019-04-10T18:47:18.554Z,11.50
2019-04-10T18:49:48.263Z,11.60
2019-04-10T18:52:19.186Z,11.60
2019-04-10T18:54:49.907Z,11.60
2019-04-10T18:57:20.187Z,11.50
2019-04-10T19:00:03.996Z,11.60
2019-04-10T19:02:59.255Z,11.60
2019-04-10T19:05:32.331Z,11.60
2019-04-10T19:08:03.048Z,11.50
2019-04-10T19:10:32.886Z,11.40
2019-04-10T19:13:03.390Z,11.40
2019-04-10T19:15:33.120Z,11.40
2019-04-10T19:18:03.610Z,11.30
2019-04-10T19:20:33.573Z,11.30
2019-04-10T19:23:04.421Z,11.40
2019-04-10T19:25:34.700Z,11.30
2019-04-10T19:28:04.626Z,11.30
2019-04-10T19:30:41.377Z,11.20
2019-04-10T19:33:12.235Z,11.20
2019-04-10T19:36:01.587Z,11.20
2019-04-10T19:38:31.752Z,11.30
2019-04-10T19:41:02.626Z,11.20
2019-04-10T19:43:34.744Z,11.20
2019-04-10T19:46:06.189Z,11.20
2019-04-10T19:48:36.157Z,11.20
2019-04-10T19:51:08.032Z,11.10
2019-04-10T19:53:37.644Z,11.20
2019-04-10T19:56:12.753Z,11.10
2019-04-10T19:58:42.360Z,11.10
2019-04-10T20:01:13.145Z,11.10
2019-04-10T20:03:43.844Z,11.10
2019-04-10T20:06:14.229Z,11.10
2019-04-10T20:08:48.841Z,11.10
2019-04-10T20:11:31.361Z,11.10
2019-04-10T20:13:51.246Z,11.10
2019-04-10T20:16:20.932Z,11.00
2019-04-10T20:18:50.827Z,11.00
2019-04-10T20:21:20.673Z,11.00
2019-04-10T20:23:50.454Z,10.90
2019-04-10T20:26:21.042Z,11.00
2019-04-10T20:28:52.381Z,10.90
2019-04-10T20:31:28.928Z,10.90
2019-04-10T20:33:59.084Z,11.00
2019-04-10T20:36:29.161Z,10.90
2019-04-10T20:38:59.146Z,10.90
2019-04-10T20:41:53.741Z,10.90
2019-04-10T20:44:20.688Z,10.90
2019-04-10T20:46:50.975Z,10.90
2019-04-10T20:49:20.919Z,10.90
2019-04-10T20:51:50.545Z,10.90
2019-04-10T20:54:20.429Z,10.90
2019-04-10T20:56:50.771Z,10.90
2019-04-10T20:59:20.405Z,10.90
2019-04-10T21:01:50.291Z,10.90
2019-04-10T21:04:19.856Z,10.90
2019-04-10T21:06:50.096Z,10.90
2019-04-10T21:09:19.778Z,10.90
2019-04-10T21:11:59.765Z,10.90
2019-04-10T21:14:21.197Z,10.90
2019-04-10T21:16:51.830Z,10.90
2019-04-10T21:19:22.418Z,10.90
2019-04-10T21:21:52.147Z,10.90
2019-04-10T21:24:21.665Z,10.80
2019-04-10T21:26:51.342Z,10.90
2019-04-10T21:29:38.783Z,10.80
2019-04-10T21:32:20.376Z,10.80
2019-04-10T21:34:51.160Z,10.80
2019-04-10T21:37:20.815Z,10.70
2019-04-10T21:39:50.479Z,10.80
2019-04-10T21:42:23.855Z,10.80
2019-04-10T21:44:51.641Z,10.80
2019-04-10T21:47:21.605Z,10.70
2019-04-10T21:49:53.297Z,10.70
2019-04-10T21:52:23.208Z,10.70
2019-04-10T21:54:57.150Z,10.80
2019-04-10T21:57:24.560Z,10.70
2019-04-10T21:59:54.270Z,10.70
2019-04-10T22:02:24.296Z,10.70
2019-04-10T22:04:53.744Z,10.60
2019-04-10T22:07:45.081Z,10.60
2019-04-10T22:10:30.098Z,10.60
2019-04-10T22:13:00.002Z,10.60
2019-04-10T22:15:35.188Z,10.60
2019-04-10T22:18:05.173Z,10.50
2019-04-10T22:20:37.532Z,10.50
2019-04-10T22:23:10.132Z,10.50
2019-04-10T22:25:39.611Z,10.60
2019-04-10T22:28:09.064Z,10.60
2019-04-10T22:30:38.960Z,10.50
2019-04-10T22:33:13.919Z,10.40
2019-04-10T22:35:46.274Z,10.50
2019-04-10T22:38:17.380Z,10.40
2019-04-10T22:40:50.360Z,10.30
2019-04-10T22:43:20.286Z,10.30
2019-04-10T22:45:50.771Z,10.30
2019-04-10T22:48:20.959Z,10.40
2019-04-10T22:50:51.338Z,10.30
2019-04-10T22:53:21.360Z,10.40
2019-04-10T22:55:52.760Z,10.40
2019-04-10T22:58:28.922Z,10.40
2019-04-10T23:01:00.408Z,10.40
2019-04-10T23:03:32.242Z,10.30
2019-04-10T23:06:01.833Z,10.40
2019-04-10T23:08:33.689Z,10.30
2019-04-10T23:11:03.563Z,10.30
2019-04-10T23:13:34.103Z,10.30
2019-04-10T23:16:06.823Z,10.30
2019-04-10T23:18:37.259Z,10.30
2019-04-10T23:21:08.199Z,10.30
2019-04-10T23:23:39.550Z,10.30
2019-04-10T23:26:13.316Z,10.30
2019-04-10T23:28:45.979Z,10.20
2019-04-10T23:31:18.573Z,10.20
2019-04-10T23:33:48.402Z,10.20
2019-04-10T23:36:18.136Z,10.20
2019-04-10T23:38:48.061Z,10.20
2019-04-10T23:41:17.778Z,10.30
2019-04-10T23:43:48.742Z,10.20
2019-04-10T23:46:18.573Z,10.30
2019-04-10T23:48:48.929Z,10.30
2019-04-10T23:51:19.010Z,10.20
2019-04-10T23:53:48.942Z,10.10
2019-04-10T23:56:19.723Z,10.20
2019-04-10T23:58:50.640Z,10.10
